Time;durP1;ratioP1;P1;durP2;ratioP2;P2;SDS_P1;SDS_P2;PMS_P1;PMS_P2;Temp;Humidity;BMP_temperature;BMP_pressure;BME280_temperature;BME280_humidity;BME280_pressure;Samples;Min_cycle;Max_cycle;Signal;HPM_P1;HPM_P2
2023/04/30 00:02:19;;;;;;;12.60;3.20;;;;;;;23.19;24.51;100074.02;107917;1254;62106;-67
2023/04/30 00:04:46;;;;;;;6.80;2.70;;;;;;;23.02;24.60;100076.51;107961;1254;74278;-68
2023/04/30 00:07:13;;;;;;;6.00;3.10;;;;;;;22.90;24.81;100076.86;107977;1254;71636;-66
2023/04/30 00:09:40;;;;;;;8.00;3.50;;;;;;;22.86;24.89;100076.98;107927;1256;74611;-66
2023/04/30 00:12:07;;;;;;;7.20;3.00;;;;;;;22.70;25.03;100068.75;107919;1254;63157;-66
2023/04/30 00:14:33;;;;;;;8.90;3.40;;;;;;;22.78;24.87;100061.65;107949;1254;62213;-66
2023/04/30 00:17:00;;;;;;;10.10;3.30;;;;;;;22.92;24.67;100058.80;107948;1254;74625;-66
2023/04/30 00:19:27;;;;;;;9.80;3.00;;;;;;;22.81;24.90;100056.66;107908;1256;70448;-67
2023/04/30 00:21:54;;;;;;;6.50;3.50;;;;;;;22.66;25.23;100059.77;107959;1256;73328;-66
2023/04/30 00:24:21;;;;;;;7.00;3.40;;;;;;;22.40;25.58;100058.19;107942;1254;62043;-65
2023/04/30 00:26:48;;;;;;;7.70;3.60;;;;;;;22.39;25.44;100055.21;107930;1258;62041;-67
2023/04/30 00:29:16;;;;;;;7.40;3.20;;;;;;;22.65;25.29;100048.84;107869;1254;76139;-66
2023/04/30 00:31:43;;;;;;;5.70;2.70;;;;;;;22.46;25.44;100048.13;107931;1256;70344;-66
2023/04/30 00:34:10;;;;;;;4.80;2.50;;;;;;;22.34;25.58;100042.42;107900;1256;71689;-65
2023/04/30 00:36:38;;;;;;;5.40;3.30;;;;;;;22.47;25.42;100047.34;108002;1256;61573;-66
2023/04/30 00:39:05;;;;;;;7.10;3.00;;;;;;;22.60;25.40;100038.48;107973;1254;60407;-66
2023/04/30 00:41:33;;;;;;;7.20;3.20;;;;;;;22.02;25.76;100040.48;107918;1255;72671;-66
2023/04/30 00:44:01;;;;;;;7.20;2.90;;;;;;;21.13;26.66;100036.72;107904;1256;71094;-64
2023/04/30 00:46:28;;;;;;;5.80;2.70;;;;;;;21.25;26.88;100032.20;107862;1255;74848;-64
2023/04/30 00:48:55;;;;;;;7.00;3.10;;;;;;;21.26;26.79;100029.62;107891;1256;63473;-66
2023/04/30 00:51:22;;;;;;;5.50;3.00;;;;;;;21.09;26.95;100027.04;107910;1256;61266;-67
2023/04/30 00:53:49;;;;;;;6.70;3.00;;;;;;;20.73;27.42;100026.58;107943;1254;75865;-65
2023/04/30 00:56:17;;;;;;;10.00;3.10;;;;;;;21.29;26.86;100024.20;107985;1253;70461;-65
2023/04/30 00:58:45;;;;;;;7.00;2.70;;;;;;;21.45;26.71;100024.47;108046;1256;73516;-65
2023/04/30 01:01:14;;;;;;;5.60;3.70;;;;;;;21.79;26.32;100025.66;107993;1254;62585;-65
2023/04/30 01:03:41;;;;;;;8.20;3.20;;;;;;;21.95;26.24;100017.73;107940;1253;60461;-67
2023/04/30 01:06:08;;;;;;;7.30;3.20;;;;;;;21.80;26.33;100020.21;107634;1256;74327;-65
2023/04/30 01:08:35;;;;;;;6.40;3.00;;;;;;;21.82;26.22;100016.32;107939;1256;70571;-64
2023/04/30 01:11:16;;;;;;;6.90;3.50;;;;;;;21.76;26.42;100015.92;107939;1255;74884;-66
2023/04/30 01:13:57;;;;;;;6.80;3.10;;;;;;;21.71;26.30;100014.53;107879;1253;61268;-65
2023/04/30 01:16:26;;;;;;;7.30;2.80;;;;;;;21.70;26.51;100018.96;107965;1260;62559;-66
2023/04/30 01:19:39;;;;;;;6.40;2.90;;;;;;;21.92;26.19;100013.30;107944;1254;75876;-66
2023/04/30 01:22:18;;;;;;;7.30;3.00;;;;;;;21.89;26.08;100016.28;107904;1254;70860;-66
2023/04/30 01:25:09;;;;;;;10.60;3.50;;;;;;;22.08;25.90;100012.98;107878;1254;74949;-66
2023/04/30 01:27:53;;;;;;;5.40;3.20;;;;;;;22.24;25.69;100014.30;107865;1256;61513;-67
2023/04/30 01:30:20;;;;;;;6.50;3.40;;;;;;;22.06;26.13;100013.91;107918;1254;62349;-65
2023/04/30 01:32:47;;;;;;;6.80;3.50;;;;;;;22.02;25.94;100007.41;107876;1254;75679;-65
2023/04/30 01:35:15;;;;;;;6.30;3.30;;;;;;;21.77;26.45;100007.86;108019;1256;72357;-65
2023/04/30 01:38:03;;;;;;;6.30;3.20;;;;;;;21.83;26.21;100006.40;107829;1255;71874;-67
2023/04/30 01:40:58;;;;;;;5.70;2.90;;;;;;;22.03;26.08;100003.07;107850;1256;60419;-67
2023/04/30 01:43:59;;;;;;;7.20;3.50;;;;;;;22.13;25.89;100000.23;107986;1254;62328;-66
2023/04/30 01:46:28;;;;;;;7.10;3.20;;;;;;;22.04;26.08;99993.30;107867;1254;76001;-66
2023/04/30 01:49:17;;;;;;;6.30;2.70;;;;;;;21.99;25.98;99989.86;108050;1254;70726;-67
2023/04/30 01:51:47;;;;;;;5.90;2.90;;;;;;;21.98;26.07;99987.80;107992;1255;74658;-65
2023/04/30 01:54:14;;;;;;;7.80;3.20;;;;;;;21.84;26.27;99987.35;107943;1255;62927;-66
2023/04/30 01:56:46;;;;;;;12.90;3.10;;;;;;;21.75;26.30;99986.36;107988;1254;62555;-64
2023/04/30 01:59:13;;;;;;;8.30;3.80;;;;;;;21.84;26.22;99982.54;107752;1254;75249;-66
2023/04/30 02:01:40;;;;;;;6.00;3.20;;;;;;;21.78;26.28;99982.21;107735;1254;70514;-66
2023/04/30 02:04:06;;;;;;;5.50;2.80;;;;;;;21.78;26.24;99979.88;107938;1256;75265;-65
2023/04/30 02:06:33;;;;;;;4.40;2.80;;;;;;;21.81;26.29;99979.36;107909;1254;61924;-66
2023/04/30 02:09:05;;;;;;;5.50;2.70;;;;;;;21.72;26.31;99977.52;107935;1254;62815;-66
2023/04/30 02:11:32;;;;;;;4.50;2.80;;;;;;;21.62;26.60;99979.25;107940;1258;72537;-66
2023/04/30 02:13:59;;;;;;;5.10;3.10;;;;;;;21.54;26.45;99982.75;108075;1255;71061;-66
2023/04/30 02:16:26;;;;;;;5.80;3.30;;;;;;;21.10;26.88;99976.88;107964;1256;73071;-67
2023/04/30 02:18:53;;;;;;;6.70;3.20;;;;;;;21.13;27.04;99978.68;107966;1254;60328;-65
2023/04/30 02:21:20;;;;;;;6.20;3.60;;;;;;;21.05;27.21;99978.27;108010;1256;61441;-64
2023/04/30 02:23:46;;;;;;;5.70;2.80;;;;;;;21.32;27.01;99980.19;107971;1253;74044;-64
2023/04/30 02:26:13;;;;;;;6.20;3.30;;;;;;;21.45;26.84;99975.88;108081;1255;71750;-66
2023/04/30 02:28:41;;;;;;;6.10;3.50;;;;;;;21.34;27.01;99973.02;107964;1256;73705;-64
2023/04/30 02:31:08;;;;;;;7.40;3.40;;;;;;;21.24;27.22;99974.28;107988;1254;62643;-66
2023/04/30 02:33:36;;;;;;;4.50;2.90;;;;;;;21.04;27.33;99971.98;108002;1254;60531;-66
2023/04/30 02:36:03;;;;;;;6.50;2.80;;;;;;;21.29;27.00;99974.67;108005;1254;74317;-66
2023/04/30 02:38:30;;;;;;;6.50;3.30;;;;;;;21.51;26.88;99970.37;107977;1256;70819;-64
2023/04/30 02:40:57;;;;;;;7.50;3.10;;;;;;;21.88;26.41;99970.23;107997;1254;72926;-67
2023/04/30 02:43:24;;;;;;;7.10;2.90;;;;;;;21.78;26.32;99968.77;107956;1256;61866;-65
2023/04/30 02:45:50;;;;;;;4.70;3.00;;;;;;;21.80;26.26;99967.71;107978;1255;60392;-65
2023/04/30 02:48:17;;;;;;;7.60;3.20;;;;;;;21.66;26.33;99970.71;107961;1258;76167;-65
2023/04/30 02:50:44;;;;;;;8.20;3.80;;;;;;;21.42;26.81;99970.61;108008;1256;71956;-65
2023/04/30 02:53:11;;;;;;;6.40;2.90;;;;;;;21.36;26.63;99964.98;107956;1260;73744;-62
2023/04/30 02:55:38;;;;;;;6.90;3.40;;;;;;;21.55;26.62;99961.14;107971;1253;62112;-66
2023/04/30 02:58:05;;;;;;;6.60;3.20;;;;;;;21.71;26.46;99963.70;108094;1253;61236;-66
2023/04/30 03:00:31;;;;;;;8.20;3.00;;;;;;;21.78;26.34;99964.16;108045;1256;76145;-65
2023/04/30 03:02:58;;;;;;;11.10;3.30;;;;;;;21.81;26.40;99960.48;107890;1256;70150;-65
2023/04/30 03:05:27;;;;;;;6.80;3.20;;;;;;;21.83;26.35;99964.10;108017;1255;74843;-65
2023/04/30 03:07:54;;;;;;;6.10;3.10;;;;;;;22.10;25.99;99962.42;107945;1256;62747;-67
2023/04/30 03:10:21;;;;;;;7.10;3.00;;;;;;;22.53;25.61;99964.73;107929;1254;60630;-67
2023/04/30 03:12:48;;;;;;;13.10;3.40;;;;;;;22.64;25.38;99968.21;107962;1258;73173;-66
2023/04/30 03:15:16;;;;;;;9.40;3.50;;;;;;;22.66;25.64;99966.77;107911;1256;70364;-67
2023/04/30 03:17:44;;;;;;;13.70;3.30;;;;;;;22.54;25.54;99968.35;107930;1254;74949;-67
2023/04/30 03:20:12;;;;;;;8.20;3.70;;;;;;;22.99;25.24;99967.70;107970;1255;63354;-65
2023/04/30 03:22:40;;;;;;;6.60;3.10;;;;;;;23.44;24.68;99965.02;107967;1255;60294;-67
2023/04/30 03:25:08;;;;;;;11.10;3.90;;;;;;;23.42;24.69;99963.98;107931;1255;74834;-64
2023/04/30 03:27:35;;;;;;;6.40;3.30;;;;;;;23.11;24.83;99962.48;107988;1258;71218;-66
2023/04/30 03:30:03;;;;;;;10.50;4.30;;;;;;;22.71;25.17;99965.02;107943;1257;72012;-65
2023/04/30 03:32:30;;;;;;;9.30;4.10;;;;;;;22.85;25.10;99958.41;107980;1254;63543;-65
2023/04/30 03:34:57;;;;;;;10.30;4.00;;;;;;;22.93;24.98;99959.70;107967;1254;62567;-65
2023/04/30 03:37:25;;;;;;;7.50;3.50;;;;;;;22.87;25.08;99959.33;107945;1254;76056;-67
2023/04/30 03:39:52;;;;;;;6.80;3.20;;;;;;;22.69;25.32;99953.27;107959;1256;69644;-66
2023/04/30 03:42:20;;;;;;;9.90;3.70;;;;;;;23.00;24.98;99956.51;108033;1254;74555;-66
2023/04/30 03:44:49;;;;;;;10.00;3.50;;;;;;;23.16;25.05;99955.46;108006;1253;60336;-66
2023/04/30 03:47:16;;;;;;;7.70;3.30;;;;;;;23.23;24.93;99958.39;107914;1256;61167;-65
2023/04/30 03:49:44;;;;;;;10.10;4.10;;;;;;;23.15;24.92;99957.88;107894;1254;76167;-66
2023/04/30 03:52:11;;;;;;;10.30;4.60;;;;;;;23.38;24.82;99963.07;107950;1256;70558;-66
2023/04/30 03:54:38;;;;;;;7.70;3.80;;;;;;;23.09;25.04;99959.45;107902;1256;73241;-66
2023/04/30 03:57:06;;;;;;;7.20;3.90;;;;;;;23.00;25.10;99955.98;108065;1253;63289;-66
2023/04/30 03:59:33;;;;;;;16.30;5.10;;;;;;;23.03;25.22;99959.48;107939;1260;62401;-66
2023/04/30 04:02:00;;;;;;;8.20;4.80;;;;;;;23.15;25.03;99951.77;108092;1254;74704;-66
2023/04/30 04:04:28;;;;;;;8.30;4.80;;;;;;;23.16;25.01;99949.38;108048;1260;70414;-66
2023/04/30 04:06:55;;;;;;;10.30;4.60;;;;;;;23.31;25.00;99944.77;107975;1253;74831;-68
2023/04/30 04:09:21;;;;;;;9.70;4.70;;;;;;;23.60;24.75;99952.59;107979;1260;62219;-68
2023/04/30 04:11:48;;;;;;;9.40;4.60;;;;;;;23.76;24.67;99949.50;107935;1260;60878;-65
2023/04/30 04:14:15;;;;;;;9.90;4.60;;;;;;;23.78;24.70;99952.91;107977;1253;76121;-68
2023/04/30 04:16:43;;;;;;;9.70;3.90;;;;;;;23.84;24.51;99953.44;107931;1260;72208;-67
2023/04/30 04:19:12;;;;;;;8.30;4.20;;;;;;;23.69;24.72;99949.79;107969;1254;73509;-65
2023/04/30 04:21:39;;;;;;;8.20;4.10;;;;;;;23.76;24.52;99949.14;107962;1253;61950;-66
2023/04/30 04:24:10;;;;;;;8.40;4.30;;;;;;;23.81;24.60;99949.88;108114;1253;62534;-67
2023/04/30 04:26:37;;;;;;;10.20;3.80;;;;;;;23.93;24.66;99947.74;107976;1253;74276;-67
2023/04/30 04:29:03;;;;;;;7.30;4.00;;;;;;;23.99;24.43;99948.14;108130;1254;72564;-67
2023/04/30 04:31:31;;;;;;;9.40;3.70;;;;;;;24.05;24.33;99942.56;108074;1258;74559;-66
2023/04/30 04:33:59;;;;;;;6.20;3.30;;;;;;;24.18;24.42;99943.27;107976;1256;61223;-67
2023/04/30 04:36:27;;;;;;;5.30;3.20;;;;;;;24.23;24.18;99940.81;108129;1253;62440;-66
2023/04/30 04:38:56;;;;;;;12.50;4.40;;;;;;;24.29;24.30;99945.12;108096;1258;75272;-66
2023/04/30 04:41:24;;;;;;;6.60;3.80;;;;;;;24.17;24.22;99944.98;108037;1253;69719;-66
2023/04/30 04:43:51;;;;;;;7.70;4.10;;;;;;;24.43;24.10;99941.53;108041;1258;74972;-67
2023/04/30 04:46:19;;;;;;;10.10;5.20;;;;;;;24.61;23.93;99942.38;108004;1254;62504;-67
2023/04/30 04:48:48;;;;;;;11.30;4.70;;;;;;;24.56;23.94;99941.21;107910;1253;62880;-67
2023/04/30 04:51:15;;;;;;;10.10;4.70;;;;;;;24.86;23.77;99934.36;108125;1253;75926;-67
2023/04/30 04:53:42;;;;;;;9.40;4.00;;;;;;;24.92;23.64;99941.05;107946;1253;73044;-66
2023/04/30 04:56:09;;;;;;;12.30;4.70;;;;;;;24.79;23.72;99936.79;107922;1256;73694;-67
2023/04/30 04:58:36;;;;;;;8.70;4.10;;;;;;;25.26;23.35;99941.66;108041;1254;60488;-67
2023/04/30 05:01:06;;;;;;;7.20;3.90;;;;;;;25.42;23.18;99941.80;108016;1255;62653;-67
2023/04/30 05:03:35;;;;;;;6.20;3.50;;;;;;;25.56;22.99;99933.71;108024;1259;75761;-67
2023/04/30 05:06:03;;;;;;;8.00;3.60;;;;;;;25.53;22.89;99929.14;107923;1254;72342;-68
2023/04/30 05:08:30;;;;;;;5.10;3.00;;;;;;;25.55;22.89;99929.90;108013;1254;73932;-66
2023/04/30 05:10:57;;;;;;;5.60;3.50;;;;;;;25.94;22.44;99925.87;107871;1257;61469;-67
2023/04/30 05:13:23;;;;;;;5.50;2.70;;;;;;;25.62;22.73;99930.55;108040;1256;62441;-67
2023/04/30 05:15:53;;;;;;;9.80;3.40;;;;;;;25.50;22.58;99931.80;107957;1254;76014;-67
2023/04/30 05:18:20;;;;;;;8.90;4.20;;;;;;;25.59;22.58;99929.11;108063;1254;72370;-67
2023/04/30 05:20:47;;;;;;;7.10;3.40;;;;;;;25.76;22.42;99931.48;108088;1256;72753;-66
2023/04/30 05:23:14;;;;;;;4.90;3.40;;;;;;;25.54;22.58;99934.76;107968;1255;60525;-66
2023/04/30 05:25:41;;;;;;;4.60;3.10;;;;;;;25.83;22.31;99931.85;107992;1256;62361;-68
2023/04/30 05:28:08;;;;;;;8.30;3.20;;;;;;;25.93;22.09;99931.86;107929;1258;75848;-66
2023/04/30 05:30:35;;;;;;;5.90;3.20;;;;;;;25.28;22.67;99931.39;107861;1256;69967;-67
2023/04/30 05:33:02;;;;;;;6.00;2.80;;;;;;;25.23;22.65;99929.30;107877;1258;73065;-68
2023/04/30 05:35:30;;;;;;;5.70;3.00;;;;;;;25.44;22.32;99925.55;107930;1259;62594;-67
2023/04/30 05:37:57;;;;;;;5.10;2.60;;;;;;;25.59;22.25;99923.11;107936;1258;62526;-66
2023/04/30 05:40:24;;;;;;;3.90;2.70;;;;;;;25.66;22.03;99918.23;107911;1259;74817;-67
2023/04/30 05:42:50;;;;;;;5.50;2.70;;;;;;;25.64;21.94;99912.19;107906;1254;70305;-66
2023/04/30 05:45:18;;;;;;;6.10;2.60;;;;;;;25.55;21.95;99914.36;107921;1254;74866;-68
2023/04/30 05:47:44;;;;;;;4.30;2.90;;;;;;;25.30;21.84;99914.23;107911;1256;62100;-67
2023/04/30 05:50:11;;;;;;;5.10;2.40;;;;;;;25.48;21.58;99911.31;107924;1258;62285;-66
2023/04/30 05:52:38;;;;;;;9.40;2.90;;;;;;;25.57;21.14;99905.40;107944;1254;74889;-67
2023/04/30 05:55:06;;;;;;;12.10;3.60;;;;;;;25.51;21.26;99906.14;107952;1254;71916;-69
2023/04/30 05:57:34;;;;;;;4.70;2.40;;;;;;;25.74;21.09;99900.22;108029;1254;73673;-67
2023/04/30 06:00:01;;;;;;;3.80;2.40;;;;;;;25.76;20.64;99900.73;107984;1258;60549;-68
2023/04/30 06:02:38;;;;;;;4.40;3.00;;;;;;;25.85;20.61;99898.02;108031;1258;60918;-68
2023/04/30 06:05:06;;;;;;;10.10;3.10;;;;;;;25.78;20.66;99896.03;108068;1259;74657;-67
2023/04/30 06:07:33;;;;;;;4.30;2.60;;;;;;;25.84;20.68;99897.00;108121;1255;69659;-68
2023/04/30 06:10:00;;;;;;;4.80;2.30;;;;;;;26.07;20.51;99893.56;107996;1254;73551;-68
2023/04/30 06:12:27;;;;;;;6.10;2.90;;;;;;;26.09;20.25;99891.56;108105;1258;61000;-67
2023/04/30 06:14:53;;;;;;;4.90;2.60;;;;;;;26.04;20.50;99890.40;108078;1257;62557;-68
2023/04/30 06:17:20;;;;;;;4.90;2.40;;;;;;;26.04;19.83;99883.96;107922;1259;74536;-67
2023/04/30 06:19:47;;;;;;;3.90;2.40;;;;;;;25.83;19.91;99885.92;108130;1253;70250;-68
2023/04/30 06:22:14;;;;;;;13.80;2.40;;;;;;;26.03;19.97;99887.30;108024;1258;74575;-68
2023/04/30 06:24:41;;;;;;;5.40;2.20;;;;;;;26.61;19.13;99886.36;107997;1259;61740;-68
2023/04/30 06:27:07;;;;;;;8.70;2.50;;;;;;;26.81;18.76;99883.23;108055;1254;62270;-71
2023/04/30 06:29:34;;;;;;;5.10;2.60;;;;;;;26.62;18.93;99880.48;108110;1253;74339;-68
2023/04/30 06:32:04;;;;;;;5.60;2.20;;;;;;;26.47;19.07;99878.97;108098;1254;70132;-68
2023/04/30 06:34:34;;;;;;;5.00;2.20;;;;;;;26.67;18.79;99876.49;108114;1255;74300;-67
2023/04/30 06:37:02;;;;;;;3.90;2.30;;;;;;;26.08;19.05;99871.31;108100;1253;61104;-67
2023/04/30 06:39:29;;;;;;;6.60;2.50;;;;;;;26.25;18.83;99872.36;108064;1254;62820;-68
2023/04/30 06:41:56;;;;;;;7.20;2.40;;;;;;;25.84;19.28;99866.11;108031;1253;76026;-68
2023/04/30 06:44:23;;;;;;;4.50;2.10;;;;;;;25.73;19.40;99865.81;108009;1254;71181;-67
2023/04/30 06:46:51;;;;;;;13.90;2.30;;;;;;;25.76;19.33;99867.80;107958;1259;73779;-66
2023/04/30 06:49:17;;;;;;;7.60;2.30;;;;;;;25.64;19.35;99866.72;108082;1254;60348;-67
2023/04/30 06:51:44;;;;;;;4.80;2.70;;;;;;;26.05;19.04;99867.23;108094;1254;61212;-66
2023/04/30 06:54:11;;;;;;;6.50;2.50;;;;;;;26.81;18.70;99864.20;108010;1258;75422;-68
2023/04/30 06:56:38;;;;;;;4.60;2.20;;;;;;;27.09;18.39;99862.69;107976;1254;69630;-67
2023/04/30 06:59:05;;;;;;;3.00;1.80;;;;;;;27.47;18.13;99860.16;107907;1259;71888;-67
2023/04/30 07:01:32;;;;;;;3.30;2.00;;;;;;;27.83;17.88;99848.56;107891;1258;62657;-67
2023/04/30 07:03:59;;;;;;;5.90;2.10;;;;;;;27.70;17.56;99852.25;107908;1254;60285;-67
2023/04/30 07:06:26;;;;;;;25.90;3.10;;;;;;;27.76;17.60;99846.21;107885;1260;76106;-68
2023/04/30 07:08:53;;;;;;;4.60;1.90;;;;;;;27.74;17.26;99843.14;107969;1259;72126;-67
2023/04/30 07:11:20;;;;;;;6.90;2.10;;;;;;;27.75;17.20;99837.90;107865;1256;71566;-67
2023/04/30 07:13:46;;;;;;;7.80;2.10;;;;;;;27.70;17.34;99832.23;107937;1254;60422;-67
2023/04/30 07:16:15;;;;;;;2.80;1.60;;;;;;;27.67;17.32;99829.77;107923;1254;62242;-67
2023/04/30 07:18:42;;;;;;;3.50;1.70;;;;;;;27.73;17.49;99822.38;108001;1254;74034;-68
2023/04/30 07:21:11;;;;;;;4.00;1.80;;;;;;;27.81;17.28;99822.52;108028;1254;69069;-67
2023/04/30 07:23:41;;;;;;;4.20;1.60;;;;;;;28.18;17.08;99818.70;107947;1254;71348;-66
2023/04/30 07:26:08;;;;;;;4.40;1.90;;;;;;;28.36;17.12;99810.09;107955;1254;61179;-65
2023/04/30 07:28:35;;;;;;;2.50;1.60;;;;;;;28.26;16.78;99812.86;107914;1254;62043;-68
2023/04/30 07:31:02;;;;;;;3.20;2.10;;;;;;;28.17;17.05;99820.73;107963;1254;74850;-68
2023/04/30 07:33:29;;;;;;;3.40;2.10;;;;;;;28.43;17.10;99813.23;107933;1254;70301;-69
2023/04/30 07:35:57;;;;;;;4.90;1.90;;;;;;;28.46;16.65;99816.04;107912;1259;74809;-67
2023/04/30 07:38:24;;;;;;;4.70;1.90;;;;;;;28.40;16.79;99810.14;107942;1260;61425;-70
2023/04/30 07:43:52;;;;;;;5.30;2.00;;;;;;;25.49;19.19;99819.14;104781;1292;600262;-69
2023/04/30 07:46:18;;;;;;;10.10;1.80;;;;;;;27.83;16.92;99816.23;107188;1267;59379;-67
2023/04/30 07:48:46;;;;;;;5.00;1.90;;;;;;;27.92;16.59;99813.94;107181;1266;60215;-67
2023/04/30 07:51:12;;;;;;;4.70;2.00;;;;;;;28.08;16.77;99809.85;107164;1267;74197;-67
2023/04/30 07:53:39;;;;;;;3.00;2.00;;;;;;;27.88;17.14;99808.59;107227;1267;70565;-68
2023/04/30 07:56:07;;;;;;;3.40;1.60;;;;;;;28.22;16.90;99805.53;107176;1267;74519;-68
2023/04/30 07:58:33;;;;;;;4.10;1.60;;;;;;;28.38;17.16;99800.30;107024;1267;277046;-68
2023/04/30 08:01:01;;;;;;;3.70;2.00;;;;;;;28.51;16.76;99799.13;107200;1267;62664;-69
2023/04/30 08:03:28;;;;;;;10.30;2.30;;;;;;;28.42;16.76;99799.61;107207;1267;72157;-69
2023/04/30 08:05:55;;;;;;;7.30;1.90;;;;;;;28.46;16.88;99797.77;107209;1269;72838;-68
2023/04/30 08:08:21;;;;;;;8.60;2.30;;;;;;;28.21;16.74;99798.84;107259;1267;73154;-68
2023/04/30 08:10:50;;;;;;;3.70;1.60;;;;;;;28.59;16.70;99796.66;107261;1267;60403;-68
2023/04/30 08:13:17;;;;;;;4.90;1.80;;;;;;;28.25;16.48;99792.96;107232;1265;62840;-68
2023/04/30 08:15:44;;;;;;;2.70;1.70;;;;;;;28.39;16.47;99794.96;107219;1270;74929;-67
2023/04/30 08:18:11;;;;;;;2.30;1.30;;;;;;;28.27;16.25;99792.91;107238;1267;71113;-67
2023/04/30 08:20:38;;;;;;;2.90;1.50;;;;;;;28.28;16.28;99792.30;107197;1267;74141;-67
2023/04/30 08:23:04;;;;;;;4.00;1.50;;;;;;;28.24;16.71;99789.65;107169;1270;62616;-68
2023/04/30 08:25:31;;;;;;;3.40;1.70;;;;;;;27.94;16.48;99789.88;107278;1266;62127;-67
2023/04/30 08:27:58;;;;;;;3.50;2.00;;;;;;;27.42;16.54;99790.33;107286;1265;74049;-68
2023/04/30 08:30:25;;;;;;;4.30;1.70;;;;;;;27.06;16.92;99787.70;107235;1266;73160;-67
2023/04/30 08:32:52;;;;;;;2.80;1.50;;;;;;;26.84;16.83;99782.56;107336;1267;74637;-66
2023/04/30 08:35:23;;;;;;;5.20;1.70;;;;;;;26.62;17.02;99782.14;107261;1267;62696;-69
2023/04/30 08:37:50;;;;;;;6.70;2.20;;;;;;;26.64;17.18;99787.28;107257;1265;60254;-68
2023/04/30 08:40:17;;;;;;;4.30;2.10;;;;;;;26.67;17.14;99790.24;107286;1265;75321;-69
2023/04/30 08:42:47;;;;;;;3.20;1.90;;;;;;;26.97;17.21;99783.66;107292;1266;70326;-68
2023/04/30 08:45:15;;;;;;;6.60;1.90;;;;;;;26.94;16.84;99787.38;107307;1266;73349;-70
2023/04/30 08:47:42;;;;;;;8.40;2.40;;;;;;;26.69;16.54;99776.17;107307;1266;62896;-67
2023/04/30 08:50:09;;;;;;;5.90;1.40;;;;;;;26.51;16.75;99780.86;107299;1266;60716;-67
2023/04/30 08:52:36;;;;;;;8.60;1.60;;;;;;;26.45;16.79;99784.67;107237;1267;75139;-67
2023/04/30 08:55:04;;;;;;;4.20;1.50;;;;;;;26.71;16.90;99775.98;107253;1264;72381;-68
2023/04/30 08:57:31;;;;;;;3.60;1.50;;;;;;;26.89;16.77;99774.89;107320;1264;74919;-69
2023/04/30 09:00:00;;;;;;;7.00;1.80;;;;;;;27.02;16.37;99777.66;107410;1264;62949;-69
2023/04/30 09:02:27;;;;;;;10.10;2.10;;;;;;;27.70;15.99;99773.42;107390;1264;62434;-70
2023/04/30 09:04:54;;;;;;;8.00;3.20;;;;;;;27.86;15.99;99771.91;107409;1264;75379;-69
2023/04/30 09:07:22;;;;;;;7.50;4.80;;;;;;;27.95;16.10;99770.30;107381;1264;73001;-69
2023/04/30 09:09:51;;;;;;;3.80;2.20;;;;;;;27.56;16.15;99778.23;107294;1264;73900;-67
2023/04/30 09:12:19;;;;;;;7.50;2.00;;;;;;;27.47;15.89;99774.84;107400;1264;61541;-69
2023/04/30 09:15:07;;;;;;;4.80;2.00;;;;;;;27.68;15.85;99775.70;107353;1264;61423;-67
2023/04/30 09:17:34;;;;;;;4.90;1.60;;;;;;;27.97;15.90;99778.89;107362;1264;75654;-68
2023/04/30 09:20:12;;;;;;;3.80;2.00;;;;;;;27.95;15.28;99777.89;107396;1264;72348;-67
2023/04/30 09:22:40;;;;;;;6.30;2.40;;;;;;;27.97;15.75;99776.94;107355;1264;72856;-68
2023/04/30 09:25:07;;;;;;;4.70;2.00;;;;;;;27.97;15.72;99777.10;107365;1267;61058;-68
2023/04/30 09:27:36;;;;;;;13.80;2.90;;;;;;;28.11;15.51;99770.55;107377;1264;62237;-68
2023/04/30 09:30:05;;;;;;;7.00;2.10;;;;;;;27.66;15.84;99770.16;107312;1264;73850;-68
2023/04/30 09:32:32;;;;;;;8.70;2.30;;;;;;;27.12;15.94;99771.44;107407;1268;72358;-68
2023/04/30 09:34:58;;;;;;;7.40;2.10;;;;;;;27.31;15.79;99765.09;107265;1264;72264;-67
2023/04/30 09:37:38;;;;;;;4.40;2.10;;;;;;;27.82;15.43;99763.88;107248;1264;62490;-66
2023/04/30 09:40:06;;;;;;;4.00;1.50;;;;;;;27.85;15.29;99758.27;107250;1269;62537;-69
2023/04/30 09:42:32;;;;;;;5.40;1.30;;;;;;;27.48;15.45;99752.52;107272;1264;73047;-69
2023/04/30 09:44:59;;;;;;;6.60;1.50;;;;;;;27.36;15.63;99752.20;107265;1264;70324;-68
2023/04/30 09:47:28;;;;;;;3.30;1.60;;;;;;;27.50;15.60;99747.11;107298;1264;73774;-68
2023/04/30 09:49:55;;;;;;;4.00;1.50;;;;;;;27.73;15.74;99751.16;107326;1264;62150;-67
2023/04/30 09:52:22;;;;;;;19.20;2.40;;;;;;;27.69;15.44;99746.92;107356;1264;62421;-68
2023/04/30 09:54:49;;;;;;;6.20;2.20;;;;;;;27.62;15.49;99744.09;107378;1264;75197;-68
2023/04/30 09:57:16;;;;;;;6.20;2.40;;;;;;;27.33;16.07;99740.52;107330;1264;71084;-67
2023/04/30 09:59:44;;;;;;;6.10;2.10;;;;;;;27.36;15.81;99740.70;107286;1265;72892;-68
2023/04/30 10:02:15;;;;;;;13.40;1.90;;;;;;;27.81;15.87;99746.46;107357;1264;61439;-66
2023/04/30 10:04:43;;;;;;;5.00;1.90;;;;;;;28.00;15.95;99743.38;107299;1264;61869;-67
2023/04/30 10:07:20;;;;;;;5.00;2.00;;;;;;;28.14;15.95;99739.23;107314;1264;75361;-68
2023/04/30 10:09:58;;;;;;;9.10;2.50;;;;;;;28.16;15.84;99736.78;107309;1264;69194;-67
2023/04/30 10:12:34;;;;;;;4.10;2.50;;;;;;;28.17;15.74;99736.61;107167;1264;73318;-67
2023/04/30 10:15:09;;;;;;;8.80;3.40;;;;;;;27.93;15.80;99737.87;107282;1264;61160;-67
2023/04/30 10:17:39;;;;;;;7.10;3.00;;;;;;;28.13;15.68;99736.98;107283;1264;61255;-67
2023/04/30 10:20:08;;;;;;;6.40;4.10;;;;;;;28.28;15.69;99735.17;107253;1264;75044;-68
2023/04/30 10:22:35;;;;;;;10.70;4.20;;;;;;;28.45;15.78;99730.83;107305;1264;72488;-68
2023/04/30 10:25:02;;;;;;;7.50;3.00;;;;;;;28.29;15.64;99730.91;107311;1269;75238;-66
2023/04/30 10:27:29;;;;;;;5.90;3.60;;;;;;;28.83;15.32;99732.48;107369;1264;61486;-66
2023/04/30 10:29:56;;;;;;;6.30;3.50;;;;;;;29.15;15.24;99728.27;107272;1264;61194;-68
2023/04/30 10:32:23;;;;;;;11.00;6.10;;;;;;;29.25;15.07;99725.94;107204;1264;75430;-67
2023/04/30 10:35:13;;;;;;;9.50;3.90;;;;;;;29.42;14.98;99725.14;107192;1264;71729;-68
2023/04/30 10:37:47;;;;;;;6.30;2.90;;;;;;;29.56;14.90;99721.06;107278;1264;73593;-69
2023/04/30 10:40:14;;;;;;;5.10;1.80;;;;;;;29.79;14.87;99719.66;107365;1267;60789;-68
2023/04/30 10:42:45;;;;;;;10.70;1.90;;;;;;;29.70;14.68;99715.23;107331;1268;61899;-68
2023/04/30 10:45:12;;;;;;;;;;;;;;;29.99;14.65;99716.66;107353;1264;75196;-68
2023/04/30 10:47:41;;;;;;;4.20;1.50;;;;;;;30.13;14.64;99714.86;107346;1264;72599;-68
2023/04/30 10:50:09;;;;;;;3.70;1.40;;;;;;;30.48;14.34;99706.77;107330;1269;74974;-68
2023/04/30 10:52:36;;;;;;;12.50;1.80;;;;;;;30.51;14.08;99709.87;107319;1264;60304;-69
2023/04/30 10:55:08;;;;;;;6.30;1.70;;;;;;;30.24;14.03;99711.66;107340;1264;62373;-69
2023/04/30 10:57:42;;;;;;;4.70;1.90;;;;;;;30.36;13.83;99706.39;107748;1256;73321;-67
2023/04/30 11:00:09;;;;;;;4.20;1.40;;;;;;;30.30;13.80;99706.77;107739;1256;70090;-68
2023/04/30 11:02:42;;;;;;;6.20;1.80;;;;;;;30.17;13.88;99711.01;107738;1257;74810;-67
2023/04/30 11:05:10;;;;;;;4.50;1.30;;;;;;;30.40;13.75;99703.86;107770;1262;59545;-67
2023/04/30 11:07:56;;;;;;;5.00;1.30;;;;;;;30.59;13.79;99700.61;107766;1256;62638;-69
2023/04/30 11:10:26;;;;;;;1.80;1.30;;;;;;;31.01;13.74;99697.62;107815;1256;74900;-69
2023/04/30 11:12:54;;;;;;;3.60;1.10;;;;;;;31.01;13.61;99704.08;107708;1256;69541;-68
2023/04/30 11:15:23;;;;;;;8.10;1.90;;;;;;;30.99;13.37;99701.09;107721;1256;75110;-68
2023/04/30 11:17:50;;;;;;;2.60;1.30;;;;;;;30.62;13.69;99702.73;107898;1256;62448;-69
2023/04/30 11:20:18;;;;;;;6.50;2.10;;;;;;;30.71;13.86;99706.95;107720;1256;62242;-67
2023/04/30 11:22:45;;;;;;;9.00;1.60;;;;;;;31.01;13.91;99703.53;107828;1256;75073;-69
2023/04/30 11:25:12;;;;;;;3.20;1.30;;;;;;;31.00;13.99;99702.56;107744;1256;73223;-69
2023/04/30 11:27:43;;;;;;;2.10;1.20;;;;;;;31.07;13.72;99706.31;107713;1256;72410;-69
2023/04/30 11:30:12;;;;;;;3.20;1.70;;;;;;;31.02;14.12;99698.79;107755;1256;59620;-68
2023/04/30 11:32:40;;;;;;;4.90;1.50;;;;;;;30.75;13.81;99698.98;107747;1256;62495;-68
2023/04/30 11:35:07;;;;;;;2.80;1.30;;;;;;;30.18;14.16;99700.12;107689;1256;75771;-68